createdAt,value
2019-02-12T00:02:13.746Z,2.80
2019-02-12T00:04:39.952Z,2.90
2019-02-12T00:07:06.159Z,2.80
2019-02-12T00:09:52.246Z,2.80
2019-02-12T00:12:18.455Z,2.80
2019-02-12T00:14:44.678Z,2.80
2019-02-12T00:17:10.894Z,2.90
2019-02-12T00:19:37.203Z,2.80
2019-02-12T00:22:03.898Z,2.80
2019-02-12T00:24:30.123Z,2.80
2019-02-12T00:26:56.335Z,2.90
2019-02-12T00:29:22.548Z,2.90
2019-02-12T00:31:48.742Z,2.80
2019-02-12T00:34:14.970Z,2.80
2019-02-12T00:36:41.175Z,2.80
2019-02-12T00:39:07.376Z,2.80
2019-02-12T00:41:35.543Z,2.80
2019-02-12T00:44:01.742Z,2.70
2019-02-12T00:46:27.958Z,2.80
2019-02-12T00:48:54.162Z,2.80
2019-02-12T00:51:20.393Z,2.80
2019-02-12T00:53:46.604Z,2.70
2019-02-12T00:56:12.814Z,2.70
2019-02-12T00:58:39.010Z,2.60
2019-02-12T01:01:05.255Z,2.60
2019-02-12T01:03:31.746Z,2.70
2019-02-12T01:05:57.951Z,2.70
2019-02-12T01:08:24.167Z,2.70
2019-02-12T01:10:50.477Z,2.60
2019-02-12T01:13:16.696Z,2.70
2019-02-12T01:15:42.899Z,2.70
2019-02-12T01:18:09.514Z,2.80
2019-02-12T01:20:35.727Z,2.70
2019-02-12T01:23:02.046Z,2.80
2019-02-12T01:25:28.265Z,2.80
2019-02-12T01:27:54.474Z,2.80
2019-02-12T01:30:20.678Z,2.80
2019-02-12T01:32:47.003Z,2.70
2019-02-12T01:35:13.203Z,2.80
2019-02-12T01:37:39.421Z,2.70
2019-02-12T01:40:25.495Z,2.70
2019-02-12T01:42:52.070Z,2.70
2019-02-12T01:45:18.279Z,2.70
2019-02-12T01:47:44.671Z,2.80
2019-02-12T01:50:11.699Z,2.80
2019-02-12T01:52:37.994Z,2.80
2019-02-12T01:55:04.318Z,2.80
2019-02-12T01:57:30.525Z,2.80
2019-02-12T01:59:56.745Z,2.80
2019-02-12T02:02:22.943Z,2.80
2019-02-12T02:04:49.177Z,2.80
2019-02-12T02:07:15.370Z,2.80
2019-02-12T02:09:41.582Z,2.70
2019-02-12T02:12:07.786Z,2.70
2019-02-12T02:14:34.010Z,2.70
2019-02-12T02:17:00.214Z,2.70
2019-02-12T02:19:26.420Z,2.60
2019-02-12T02:21:52.678Z,2.50
2019-02-12T02:24:18.878Z,2.50
2019-02-12T02:26:45.098Z,2.50
2019-02-12T02:29:11.294Z,2.50
2019-02-12T02:31:37.520Z,2.60
2019-02-12T02:34:03.723Z,2.50
2019-02-12T02:36:29.944Z,2.50
2019-02-12T02:38:56.152Z,2.50
2019-02-12T02:41:22.371Z,2.50
2019-02-12T02:43:48.570Z,2.50
2019-02-12T02:46:14.795Z,2.50
2019-02-12T02:48:40.998Z,2.50
2019-02-12T02:51:07.234Z,2.40
2019-02-12T02:53:33.438Z,2.40
2019-02-12T02:55:59.654Z,2.50
2019-02-12T02:58:25.852Z,2.50
2019-02-12T03:00:52.066Z,2.50
2019-02-12T03:03:18.275Z,2.60
2019-02-12T03:05:44.465Z,2.60
2019-02-12T03:08:10.693Z,2.60
2019-02-12T03:10:36.887Z,2.60
2019-02-12T03:13:03.116Z,2.60
2019-02-12T03:15:29.410Z,2.60
2019-02-12T03:17:55.631Z,2.50
2019-02-12T03:20:21.831Z,2.50
2019-02-12T03:22:48.346Z,2.60
2019-02-12T03:25:14.546Z,2.50
2019-02-12T03:27:40.773Z,2.50
2019-02-12T03:30:09.805Z,2.50
2019-02-12T03:32:36.195Z,2.50
2019-02-12T03:35:04.183Z,2.40
2019-02-12T03:37:30.407Z,2.30
2019-02-12T03:39:56.702Z,2.30
2019-02-12T03:42:23.222Z,2.20
2019-02-12T03:44:49.543Z,2.20
2019-02-12T03:47:15.751Z,2.20
2019-02-12T03:49:41.967Z,2.20
2019-02-12T03:52:13.065Z,2.20
2019-02-12T03:54:36.307Z,2.00
2019-02-12T03:57:02.706Z,2.20
2019-02-12T03:59:28.931Z,2.20
2019-02-12T04:01:55.345Z,2.10
2019-02-12T04:04:21.644Z,2.00
2019-02-12T04:06:47.870Z,2.00
2019-02-12T04:09:14.162Z,2.00
2019-02-12T04:11:40.387Z,2.10
2019-02-12T04:14:06.742Z,2.30
2019-02-12T04:16:33.163Z,2.20
2019-02-12T04:18:59.371Z,2.20
2019-02-12T04:21:25.586Z,2.20
2019-02-12T04:23:51.790Z,2.30
2019-02-12T04:26:18.006Z,2.30
2019-02-12T04:28:44.209Z,2.30
2019-02-12T04:31:10.431Z,2.20
2019-02-12T04:33:36.639Z,2.20
2019-02-12T04:36:02.966Z,2.20
2019-02-12T04:38:29.167Z,2.20
2019-02-12T04:40:55.371Z,2.10
2019-02-12T04:43:21.597Z,2.00
2019-02-12T04:45:47.803Z,1.90
2019-02-12T04:48:14.407Z,2.00
2019-02-12T04:50:40.633Z,2.00
2019-02-12T04:53:06.850Z,2.00
2019-02-12T04:55:33.060Z,2.00
2019-02-12T04:57:59.307Z,2.00
2019-02-12T05:00:25.587Z,2.00
2019-02-12T05:02:51.807Z,2.00
2019-02-12T05:05:18.314Z,2.00
2019-02-12T05:07:44.535Z,2.00
2019-02-12T05:10:14.537Z,2.10
2019-02-12T05:12:40.899Z,2.20
2019-02-12T05:15:08.405Z,2.10
2019-02-12T05:17:34.615Z,2.20
2019-02-12T05:20:00.823Z,2.20
2019-02-12T05:22:27.028Z,2.20
2019-02-12T05:24:53.247Z,2.30
2019-02-12T05:27:19.446Z,2.30
2019-02-12T05:29:45.672Z,2.20
2019-02-12T05:32:11.967Z,2.20
2019-02-12T05:34:38.194Z,2.20
2019-02-12T05:37:04.391Z,2.10
2019-02-12T05:39:30.594Z,2.10
2019-02-12T05:41:56.815Z,2.10
2019-02-12T05:44:23.010Z,2.10
2019-02-12T05:46:49.244Z,2.10
2019-02-12T05:49:15.537Z,2.20
2019-02-12T05:51:41.940Z,2.20
2019-02-12T05:54:08.231Z,2.20
2019-02-12T05:56:34.451Z,2.20
2019-02-12T05:59:00.665Z,2.20
2019-02-12T06:01:26.886Z,2.20
2019-02-12T06:03:53.117Z,2.30
2019-02-12T06:06:19.403Z,2.20
2019-02-12T06:08:45.623Z,2.20
2019-02-12T06:11:11.823Z,2.20
2019-02-12T06:13:38.046Z,2.20
2019-02-12T06:16:04.461Z,2.20
2019-02-12T06:18:30.687Z,2.20
2019-02-12T06:20:56.892Z,2.20
2019-02-12T06:23:23.103Z,2.20
2019-02-12T06:25:49.328Z,2.20
2019-02-12T06:28:15.543Z,2.20
2019-02-12T06:30:43.862Z,2.20
2019-02-12T06:33:09.978Z,2.30
2019-02-12T06:35:36.171Z,2.30
2019-02-12T06:38:02.392Z,2.30
2019-02-12T06:40:28.699Z,2.30
2019-02-12T06:42:55.050Z,2.20
2019-02-12T06:45:21.342Z,2.20
2019-02-12T06:47:47.564Z,2.20
2019-02-12T06:50:13.762Z,2.20
2019-02-12T06:52:39.998Z,2.20
2019-02-12T06:55:08.706Z,2.20
2019-02-12T06:57:36.748Z,2.20
2019-02-12T07:00:08.753Z,2.30
2019-02-12T07:03:11.199Z,2.40
2019-02-12T07:05:40.080Z,2.30
2019-02-12T07:08:39.465Z,2.30
2019-02-12T07:11:24.629Z,2.30
2019-02-12T07:14:17.047Z,2.40
2019-02-12T07:17:06.911Z,2.40
2019-02-12T07:19:39.951Z,2.50
2019-02-12T07:22:22.271Z,2.60
2019-02-12T07:25:24.442Z,2.60
2019-02-12T07:28:02.992Z,2.60
2019-02-12T07:30:51.099Z,2.70
2019-02-12T07:33:24.075Z,2.70
2019-02-12T07:35:56.668Z,2.90
2019-02-12T07:38:29.707Z,2.90
2019-02-12T07:40:59.734Z,3.00
2019-02-12T07:43:41.627Z,3.00
2019-02-12T07:46:23.926Z,3.10
2019-02-12T07:49:12.226Z,3.20
2019-02-12T07:51:48.219Z,3.30
2019-02-12T07:54:30.319Z,3.30
2019-02-12T07:57:03.187Z,3.30
2019-02-12T07:59:42.533Z,3.40
2019-02-12T08:02:33.833Z,3.40
2019-02-12T08:05:04.195Z,3.50
2019-02-12T08:07:37.267Z,3.50
2019-02-12T08:10:28.374Z,3.60
2019-02-12T08:13:23.171Z,3.60
2019-02-12T08:15:56.055Z,3.70
2019-02-12T08:18:38.426Z,3.70
2019-02-12T08:21:25.111Z,3.70
2019-02-12T08:24:04.409Z,3.70
2019-02-12T08:26:40.544Z,3.60
2019-02-12T08:29:42.563Z,3.50
2019-02-12T08:32:12.579Z,3.50
2019-02-12T08:35:07.034Z,3.60
2019-02-12T08:37:40.214Z,3.60
2019-02-12T08:40:19.615Z,3.80
2019-02-12T08:43:05.031Z,3.90
2019-02-12T08:45:43.871Z,3.90
2019-02-12T08:48:13.887Z,4.10
2019-02-12T08:51:18.976Z,4.30
2019-02-12T08:54:05.558Z,4.40
2019-02-12T08:56:47.531Z,4.40
2019-02-12T08:59:32.087Z,4.60
2019-02-12T09:02:22.916Z,4.70
2019-02-12T09:04:57.066Z,4.90
2019-02-12T09:07:39.171Z,5.10
2019-02-12T09:10:38.177Z,5.20
2019-02-12T09:13:11.227Z,5.30
2019-02-12T09:16:10.527Z,5.50
2019-02-12T09:19:13.874Z,5.40
2019-02-12T09:22:08.343Z,5.50
2019-02-12T09:24:47.251Z,5.50
2019-02-12T09:27:17.275Z,5.30
2019-02-12T09:29:53.300Z,5.40
2019-02-12T09:32:32.232Z,5.40
2019-02-12T09:35:08.386Z,5.40
2019-02-12T09:37:53.822Z,5.40
2019-02-12T09:40:42.027Z,5.40
2019-02-12T09:43:17.807Z,5.40
2019-02-12T09:45:51.028Z,5.50
2019-02-12T09:48:21.148Z,5.50
2019-02-12T09:50:56.913Z,5.60
2019-02-12T09:53:27.008Z,5.60
2019-02-12T09:56:05.639Z,5.60
2019-02-12T09:59:09.403Z,5.60
2019-02-12T10:01:57.871Z,5.70
2019-02-12T10:04:33.786Z,5.90
2019-02-12T10:07:15.862Z,5.90
2019-02-12T10:09:51.899Z,6.00
2019-02-12T10:12:24.749Z,6.20
2019-02-12T10:15:11.943Z,6.20
2019-02-12T10:17:44.980Z,6.20
2019-02-12T10:20:18.007Z,6.10
2019-02-12T10:23:06.508Z,6.10
2019-02-12T10:25:32.853Z,6.10
2019-02-12T10:28:27.449Z,6.30
2019-02-12T10:31:00.291Z,6.30
2019-02-12T10:33:26.515Z,6.30
2019-02-12T10:35:52.815Z,6.40
2019-02-12T10:38:19.031Z,6.50
2019-02-12T10:40:45.239Z,6.40
2019-02-12T10:43:11.455Z,6.40
2019-02-12T10:45:37.670Z,6.50
2019-02-12T10:48:03.966Z,6.60
2019-02-12T10:50:30.186Z,6.60
2019-02-12T10:52:56.391Z,6.70
2019-02-12T10:55:22.622Z,6.70
2019-02-12T10:57:48.930Z,6.70
2019-02-12T11:00:15.242Z,6.70
2019-02-12T11:02:59.990Z,6.70
2019-02-12T11:05:26.210Z,6.80
2019-02-12T11:07:52.416Z,6.80
2019-02-12T11:10:19.035Z,6.90
2019-02-12T11:12:45.334Z,6.90
2019-02-12T11:15:11.957Z,6.60
2019-02-12T11:17:38.171Z,6.60
2019-02-12T11:20:07.495Z,6.80
2019-02-12T11:22:34.020Z,6.90
2019-02-12T11:25:00.251Z,6.90
2019-02-12T11:27:26.842Z,6.80
2019-02-12T11:29:53.041Z,6.80
2019-02-12T11:32:19.269Z,6.90
2019-02-12T11:34:45.469Z,6.90
2019-02-12T11:37:11.691Z,6.80
2019-02-12T11:39:37.887Z,6.90
2019-02-12T11:42:04.210Z,7.00
2019-02-12T11:44:30.440Z,7.00
2019-02-12T11:46:56.697Z,7.20
2019-02-12T11:49:22.912Z,7.20
2019-02-12T11:51:49.121Z,7.20
2019-02-12T11:54:15.337Z,7.10
2019-02-12T11:56:41.543Z,7.10
2019-02-12T11:59:07.769Z,7.10
2019-02-12T12:01:33.974Z,7.20
2019-02-12T12:04:00.191Z,7.20
2019-02-12T12:06:26.398Z,7.20
2019-02-12T12:08:54.046Z,7.20
2019-02-12T12:11:20.251Z,7.30
2019-02-12T12:13:46.474Z,7.30
2019-02-12T12:16:12.678Z,7.50
2019-02-12T12:18:38.907Z,7.50
2019-02-12T12:21:05.111Z,7.50
2019-02-12T12:23:31.512Z,7.60
2019-02-12T12:25:57.739Z,7.70
2019-02-12T12:28:23.934Z,7.80
2019-02-12T12:30:50.166Z,7.90
2019-02-12T12:33:16.467Z,7.80
2019-02-12T12:35:42.700Z,7.90
2019-02-12T12:38:08.904Z,8.00
2019-02-12T12:40:35.128Z,8.10
2019-02-12T12:43:01.326Z,8.10
2019-02-12T12:45:27.671Z,8.40
2019-02-12T12:47:53.889Z,8.50
2019-02-12T12:50:20.203Z,8.40
2019-02-12T12:52:46.420Z,8.40
2019-02-12T12:55:12.623Z,8.40
2019-02-12T12:57:41.879Z,8.60
2019-02-12T13:00:12.095Z,8.80
2019-02-12T13:02:38.406Z,8.70
2019-02-12T13:05:05.863Z,8.60
2019-02-12T13:07:32.131Z,8.50
2019-02-12T13:09:58.545Z,8.60
2019-02-12T13:12:24.779Z,8.50
2019-02-12T13:14:50.986Z,8.60
2019-02-12T13:17:17.210Z,8.90
2019-02-12T13:19:43.421Z,9.40
2019-02-12T13:22:09.726Z,9.60
2019-02-12T13:24:35.948Z,9.80
2019-02-12T13:27:02.162Z,9.80
2019-02-12T13:29:28.668Z,9.60
2019-02-12T13:31:54.870Z,9.30
2019-02-12T13:34:21.097Z,9.20
2019-02-12T13:36:47.301Z,9.00
2019-02-12T13:39:13.637Z,8.90
2019-02-12T13:41:39.848Z,9.10
2019-02-12T13:44:06.170Z,9.30
2019-02-12T13:46:32.378Z,9.30
2019-02-12T13:48:58.612Z,9.20
2019-02-12T13:51:24.810Z,9.30
2019-02-12T13:53:51.006Z,9.20
2019-02-12T13:56:17.221Z,9.30
2019-02-12T13:58:43.422Z,9.30
2019-02-12T14:01:09.647Z,9.30
2019-02-12T14:16:54.682Z,10.50
2019-02-12T14:19:20.891Z,10.30
2019-02-12T14:21:47.138Z,10.40
2019-02-12T14:24:13.339Z,10.70
2019-02-12T14:26:39.562Z,10.90
2019-02-12T14:29:05.771Z,10.90
2019-02-12T14:31:31.994Z,10.50
2019-02-12T14:33:58.238Z,10.30
2019-02-12T14:36:24.442Z,10.50
2019-02-12T14:38:50.685Z,10.80
2019-02-12T14:41:16.881Z,10.80
2019-02-12T14:43:43.103Z,10.90
2019-02-12T14:46:09.406Z,11.00
2019-02-12T14:48:35.631Z,11.00
2019-02-12T14:51:01.827Z,10.80
2019-02-12T14:53:28.047Z,10.80
2019-02-12T14:55:54.250Z,10.60
2019-02-12T14:58:20.475Z,10.30
2019-02-12T15:00:46.670Z,10.10
2019-02-12T15:03:12.998Z,10.00
2019-02-12T15:05:39.214Z,9.70
2019-02-12T15:08:05.447Z,9.10
2019-02-12T15:10:31.679Z,8.80
2019-02-12T15:12:57.912Z,8.70
2019-02-12T15:15:24.329Z,8.60
2019-02-12T15:17:50.551Z,8.50
2019-02-12T15:20:16.766Z,8.50
2019-02-12T15:22:42.980Z,8.40
2019-02-12T15:25:10.501Z,8.40
2019-02-12T15:27:36.719Z,8.50
2019-02-12T15:30:06.750Z,8.50
2019-02-12T15:32:32.963Z,8.60
2019-02-12T15:34:59.173Z,8.60
2019-02-12T15:37:25.379Z,8.70
2019-02-12T15:39:51.603Z,9.80
2019-02-12T15:42:17.816Z,10.40
2019-02-12T15:44:44.035Z,10.70
2019-02-12T15:47:10.261Z,11.50
2019-02-12T15:49:36.562Z,11.90
2019-02-12T15:52:02.783Z,12.00
2019-02-12T15:54:28.987Z,11.70
2019-02-12T15:56:55.202Z,11.60
2019-02-12T15:59:21.415Z,11.30
2019-02-12T16:01:49.140Z,10.80
2019-02-12T16:04:15.769Z,10.20
2019-02-12T16:06:42.536Z,9.70
2019-02-12T16:09:10.098Z,9.30
2019-02-12T16:11:36.647Z,9.00
2019-02-12T16:14:03.752Z,8.70
2019-02-12T16:16:30.465Z,8.50
2019-02-12T16:18:58.110Z,8.40
2019-02-12T16:21:24.336Z,8.30
2019-02-12T16:23:50.534Z,8.10
2019-02-12T16:26:16.769Z,8.00
2019-02-12T16:28:42.958Z,7.80
2019-02-12T16:31:09.165Z,7.60
2019-02-12T16:33:35.386Z,7.50
2019-02-12T16:36:01.596Z,7.50
2019-02-12T16:38:27.815Z,7.40
2019-02-12T16:40:54.019Z,7.30
2019-02-12T16:43:20.230Z,7.30
2019-02-12T16:45:58.826Z,7.20
2019-02-12T16:48:25.051Z,7.00
2019-02-12T16:50:51.246Z,7.00
2019-02-12T16:53:17.470Z,6.90
2019-02-12T16:55:43.714Z,6.80
2019-02-12T16:58:10.923Z,6.80
2019-02-12T17:00:37.122Z,6.70
2019-02-12T17:03:03.455Z,6.60
2019-02-12T17:05:30.106Z,6.60
2019-02-12T17:07:56.485Z,6.60
2019-02-12T17:10:22.821Z,6.60
2019-02-12T17:12:49.010Z,6.60
2019-02-12T17:15:15.239Z,6.60
2019-02-12T17:17:41.655Z,6.50
2019-02-12T17:20:19.878Z,6.40
2019-02-12T17:22:46.191Z,6.40
2019-02-12T17:25:13.179Z,6.30
2019-02-12T17:27:39.382Z,6.30
2019-02-12T17:30:08.811Z,6.20
2019-02-12T17:32:35.048Z,6.20
2019-02-12T17:35:01.821Z,6.10
2019-02-12T17:37:28.182Z,6.00
2019-02-12T17:39:54.402Z,5.90
2019-02-12T17:42:20.611Z,5.80
2019-02-12T17:44:46.823Z,5.80
2019-02-12T17:47:13.031Z,5.70
2019-02-12T17:49:39.225Z,5.80
2019-02-12T17:52:05.466Z,5.70
2019-02-12T17:54:31.771Z,5.80
2019-02-12T17:56:58.175Z,5.70
2019-02-12T17:59:44.256Z,5.60
2019-02-12T18:02:10.480Z,5.50
2019-02-12T18:04:36.694Z,5.50
2019-02-12T18:07:02.914Z,5.50
2019-02-12T18:09:29.109Z,5.40
2019-02-12T18:11:55.331Z,5.30
2019-02-12T18:14:21.530Z,5.20
2019-02-12T18:16:48.027Z,5.20
2019-02-12T18:19:14.226Z,5.10
2019-02-12T18:21:40.442Z,5.10
2019-02-12T18:24:07.452Z,5.00
2019-02-12T18:26:33.803Z,5.00
2019-02-12T18:29:00.006Z,5.00
2019-02-12T18:31:26.215Z,4.90
2019-02-12T18:33:52.643Z,5.00
2019-02-12T18:36:18.846Z,5.00
2019-02-12T18:38:45.072Z,4.90
2019-02-12T18:41:11.291Z,4.80
2019-02-12T18:43:37.513Z,4.80
2019-02-12T18:46:03.822Z,4.80
2019-02-12T18:48:30.038Z,4.80
2019-02-12T18:50:56.246Z,4.70
2019-02-12T18:53:22.507Z,4.70
2019-02-12T18:55:48.720Z,4.70
2019-02-12T18:58:15.122Z,4.70
2019-02-12T19:00:41.338Z,4.70
2019-02-12T19:03:07.658Z,4.70
2019-02-12T19:05:33.882Z,4.70
2019-02-12T19:08:00.095Z,4.70
2019-02-12T19:10:26.438Z,4.70
2019-02-12T19:12:52.643Z,4.70
2019-02-12T19:15:20.162Z,4.70
2019-02-12T19:17:56.171Z,4.70
2019-02-12T19:20:22.386Z,4.60
2019-02-12T19:22:48.586Z,4.70
2019-02-12T19:25:14.807Z,4.60
2019-02-12T19:27:41.111Z,4.60
2019-02-12T19:30:16.168Z,4.50
2019-02-12T19:32:42.539Z,4.50
2019-02-12T19:35:09.683Z,4.50
2019-02-12T19:37:35.883Z,4.40
2019-02-12T19:40:02.590Z,4.50
2019-02-12T19:42:29.150Z,4.40
2019-02-12T19:44:55.355Z,4.40
2019-02-12T19:47:21.596Z,4.30
2019-02-12T19:49:47.808Z,4.30
2019-02-12T19:52:14.038Z,4.30
2019-02-12T19:54:40.238Z,4.20
2019-02-12T19:57:06.459Z,4.20
2019-02-12T19:59:32.687Z,4.20
2019-02-12T20:01:58.915Z,4.20
2019-02-12T20:04:27.064Z,4.20
2019-02-12T20:06:56.334Z,4.10
2019-02-12T20:09:22.539Z,4.10
2019-02-12T20:11:48.753Z,4.00
2019-02-12T20:14:15.247Z,4.10
2019-02-12T20:16:41.475Z,4.10
2019-02-12T20:19:07.682Z,4.10
2019-02-12T20:21:33.882Z,4.10
2019-02-12T20:24:00.107Z,4.00
2019-02-12T20:26:26.322Z,3.90
2019-02-12T20:28:52.523Z,3.90
2019-02-12T20:31:18.842Z,3.90
2019-02-12T20:33:45.047Z,3.80
2019-02-12T20:36:11.265Z,3.80
2019-02-12T20:38:37.575Z,3.80
2019-02-12T20:41:03.828Z,3.80
2019-02-12T20:43:30.054Z,3.80
2019-02-12T20:45:56.261Z,3.80
2019-02-12T20:48:22.466Z,3.80
2019-02-12T20:50:48.674Z,3.90
2019-02-12T20:53:14.921Z,3.80
2019-02-12T20:55:41.219Z,3.70
2019-02-12T20:58:07.452Z,3.60
2019-02-12T21:00:33.859Z,3.60
2019-02-12T21:03:00.078Z,3.50
2019-02-12T21:05:26.282Z,3.50
2019-02-12T21:07:52.495Z,3.50
2019-02-12T21:10:22.738Z,3.50
2019-02-12T21:12:48.934Z,3.40
2019-02-12T21:15:26.694Z,3.40
2019-02-12T21:17:52.998Z,3.50
2019-02-12T21:20:19.299Z,3.40
2019-02-12T21:22:45.897Z,3.50
2019-02-12T21:25:12.414Z,3.50
2019-02-12T21:27:38.607Z,3.40
2019-02-12T21:30:10.827Z,3.40
2019-02-12T21:32:37.038Z,3.50
2019-02-12T21:35:05.739Z,3.50
2019-02-12T21:37:31.963Z,3.50
2019-02-12T21:39:58.167Z,3.50
2019-02-12T21:42:24.391Z,3.40
2019-02-12T21:44:50.595Z,3.30
2019-02-12T21:47:16.806Z,3.20
2019-02-12T21:49:43.006Z,3.20
2019-02-12T21:52:09.234Z,3.20
2019-02-12T21:54:35.443Z,3.10
2019-02-12T21:57:01.662Z,3.20
2019-02-12T21:59:27.859Z,3.30
2019-02-12T22:01:54.310Z,3.30
2019-02-12T22:04:20.535Z,3.30
2019-02-12T22:06:46.826Z,3.30
2019-02-12T22:09:13.053Z,3.30
2019-02-12T22:11:39.250Z,3.20
2019-02-12T22:14:05.483Z,3.20
2019-02-12T22:16:31.878Z,3.20
2019-02-12T22:18:58.094Z,3.20
2019-02-12T22:21:24.299Z,3.20
2019-02-12T22:23:50.519Z,3.30
2019-02-12T22:26:16.714Z,3.20
2019-02-12T22:28:42.943Z,3.40
2019-02-12T22:31:09.134Z,3.30
2019-02-12T22:33:35.350Z,3.30
2019-02-12T22:36:01.549Z,3.30
2019-02-12T22:38:27.777Z,3.30
2019-02-12T22:40:53.970Z,3.30
2019-02-12T22:43:20.166Z,3.30
2019-02-12T22:45:46.386Z,3.30
2019-02-12T22:48:12.602Z,3.30
2019-02-12T22:50:38.823Z,3.30
2019-02-12T22:53:05.028Z,3.30
2019-02-12T22:55:31.282Z,3.30
2019-02-12T22:57:57.570Z,3.40
2019-02-12T23:00:32.694Z,3.30
2019-02-12T23:02:58.898Z,3.30
2019-02-12T23:05:25.374Z,3.20
2019-02-12T23:07:51.603Z,3.20
2019-02-12T23:10:17.818Z,3.30
2019-02-12T23:12:44.038Z,3.10
2019-02-12T23:15:10.341Z,3.10
2019-02-12T23:17:36.561Z,3.00
2019-02-12T23:20:04.570Z,2.90
2019-02-12T23:22:30.825Z,2.90
2019-02-12T23:24:57.017Z,2.80
2019-02-12T23:27:23.214Z,2.80
2019-02-12T23:29:49.486Z,2.80
2019-02-12T23:32:15.757Z,2.80
2019-02-12T23:34:41.995Z,2.80
2019-02-12T23:37:08.194Z,2.80
2019-02-12T23:39:34.487Z,2.70
2019-02-12T23:42:00.683Z,2.70
2019-02-12T23:44:27.042Z,2.70
2019-02-12T23:46:53.248Z,2.70
2019-02-12T23:49:19.737Z,2.60
2019-02-12T23:51:45.959Z,2.60
2019-02-12T23:54:12.271Z,2.60
2019-02-12T23:56:38.524Z,2.60
2019-02-12T23:59:04.723Z,2.60
